createdAt,value
2023-05-19T00:01:25.115Z,12.93
2023-05-19T00:03:54.754Z,12.83
2023-05-19T00:06:27.289Z,12.89
2023-05-19T00:09:06.097Z,12.79
2023-05-19T00:11:36.344Z,12.66
2023-05-19T00:14:04.428Z,12.58
2023-05-19T00:16:32.382Z,12.45
2023-05-19T00:19:00.854Z,12.40
2023-05-19T00:21:29.516Z,12.37
2023-05-19T00:23:56.768Z,12.22
2023-05-19T00:26:24.952Z,12.21
2023-05-19T00:28:54.462Z,12.24
2023-05-19T00:31:21.851Z,12.11
2023-05-19T00:33:49.279Z,12.05
2023-05-19T00:36:16.803Z,12.00
2023-05-19T00:38:44.013Z,11.96
2023-05-19T00:41:11.933Z,11.97
2023-05-19T00:43:39.429Z,11.92
2023-05-19T00:46:07.596Z,12.04
2023-05-19T00:48:35.257Z,11.96
2023-05-19T00:51:05.292Z,11.91
2023-05-19T00:53:34.090Z,11.94
2023-05-19T00:56:02.449Z,12.02
2023-05-19T00:58:32.675Z,11.96
2023-05-19T01:01:06.968Z,11.93
2023-05-19T01:03:36.269Z,11.98
2023-05-19T01:06:07.943Z,11.93
2023-05-19T01:08:39.461Z,11.78
2023-05-19T01:11:07.337Z,11.71
2023-05-19T01:13:35.931Z,11.72
2023-05-19T01:16:32.308Z,11.76
2023-05-19T01:19:21.217Z,11.74
2023-05-19T01:21:54.084Z,11.84
2023-05-19T01:24:53.504Z,11.76
2023-05-19T01:27:43.347Z,11.98
2023-05-19T01:30:17.014Z,11.86
2023-05-19T01:32:45.723Z,11.83
2023-05-19T01:35:14.439Z,11.91
2023-05-19T01:37:41.706Z,11.95
2023-05-19T01:40:11.036Z,11.86
2023-05-19T01:42:40.108Z,11.69
2023-05-19T01:45:11.244Z,11.74
2023-05-19T01:47:42.998Z,11.83
2023-05-19T01:50:11.238Z,11.78
2023-05-19T01:52:38.887Z,12.01
2023-05-19T01:55:06.905Z,12.04
2023-05-19T01:57:53.834Z,12.02
2023-05-19T02:00:35.081Z,12.01
2023-05-19T02:03:12.035Z,12.01
2023-05-19T02:06:07.262Z,12.15
2023-05-19T02:09:04.333Z,12.07
2023-05-19T02:12:07.489Z,11.76
2023-05-19T02:14:44.109Z,11.70
2023-05-19T02:17:13.433Z,12.01
2023-05-19T02:19:41.206Z,11.99
2023-05-19T02:22:08.634Z,11.90
2023-05-19T02:24:37.719Z,11.65
2023-05-19T02:27:05.478Z,11.57
2023-05-19T02:29:33.036Z,11.70
2023-05-19T02:32:01.562Z,11.64
2023-05-19T02:34:28.920Z,11.60
2023-05-19T02:36:57.783Z,11.47
2023-05-19T02:39:25.034Z,11.50
2023-05-19T02:41:52.214Z,11.46
2023-05-19T02:44:19.855Z,11.57
2023-05-19T02:46:47.168Z,11.59
2023-05-19T02:49:14.952Z,11.63
2023-05-19T02:51:42.646Z,11.63
2023-05-19T02:54:10.093Z,11.64
2023-05-19T02:56:37.280Z,11.65
2023-05-19T02:59:04.832Z,11.63
2023-05-19T03:01:32.823Z,11.63
2023-05-19T03:04:00.289Z,11.69
2023-05-19T03:06:28.316Z,11.51
2023-05-19T03:08:55.669Z,11.60
2023-05-19T03:11:23.359Z,11.68
2023-05-19T03:13:50.819Z,11.71
2023-05-19T03:16:18.099Z,11.71
2023-05-19T03:18:46.027Z,11.76
2023-05-19T03:21:13.472Z,11.78
2023-05-19T03:23:40.645Z,11.90
2023-05-19T03:26:07.932Z,11.97
2023-05-19T03:28:35.597Z,12.04
2023-05-19T03:31:03.171Z,12.10
2023-05-19T03:33:32.616Z,12.11
2023-05-19T03:36:00.174Z,12.11
2023-05-19T03:38:28.597Z,12.09
2023-05-19T03:40:56.276Z,12.16
2023-05-19T03:43:23.762Z,12.20
2023-05-19T03:45:51.834Z,12.24
2023-05-19T03:48:21.454Z,12.34
2023-05-19T03:50:50.950Z,12.40
2023-05-19T03:53:18.467Z,12.37
2023-05-19T03:55:46.395Z,12.37
2023-05-19T03:58:14.699Z,12.45
2023-05-19T04:00:42.496Z,12.52
2023-05-19T04:03:10.190Z,12.60
2023-05-19T04:05:37.596Z,12.78
2023-05-19T04:08:04.976Z,12.86
2023-05-19T04:10:32.726Z,12.98
2023-05-19T04:13:00.151Z,13.10
2023-05-19T04:15:27.561Z,13.23
2023-05-19T04:17:56.324Z,13.40
2023-05-19T04:20:23.696Z,13.52
2023-05-19T04:22:51.133Z,13.32
2023-05-19T04:25:20.319Z,13.53
2023-05-19T04:27:48.941Z,13.81
2023-05-19T04:30:22.498Z,13.78
2023-05-19T04:32:54.041Z,13.89
2023-05-19T04:35:21.388Z,14.20
2023-05-19T04:37:49.201Z,14.77
2023-05-19T04:40:17.506Z,15.11
2023-05-19T04:42:46.189Z,15.37
2023-05-19T04:45:14.192Z,15.78
2023-05-19T04:47:42.509Z,16.10
2023-05-19T04:50:11.456Z,16.45
2023-05-19T04:52:38.589Z,16.74
2023-05-19T04:55:06.652Z,17.04
2023-05-19T04:57:33.922Z,17.40
2023-05-19T05:00:01.801Z,17.66
2023-05-19T05:02:32.301Z,17.83
2023-05-19T05:05:01.748Z,18.16
2023-05-19T05:07:31.593Z,18.53
2023-05-19T05:09:59.829Z,19.02
2023-05-19T05:12:27.763Z,19.22
2023-05-19T05:14:55.788Z,19.27
2023-05-19T05:17:23.204Z,19.40
2023-05-19T05:19:50.842Z,19.43
2023-05-19T05:22:18.773Z,19.35
2023-05-19T05:24:46.728Z,19.20
2023-05-19T05:27:14.627Z,19.00
2023-05-19T05:29:42.736Z,18.70
2023-05-19T05:32:10.407Z,18.68
2023-05-19T05:34:39.982Z,18.68
2023-05-19T05:37:07.510Z,18.68
2023-05-19T05:39:35.287Z,18.65
2023-05-19T05:42:02.669Z,18.68
2023-05-19T05:44:30.822Z,19.21
2023-05-19T05:46:58.549Z,20.53
2023-05-19T05:49:26.624Z,21.18
2023-05-19T05:52:05.556Z,21.82
2023-05-19T05:54:34.724Z,22.18
2023-05-19T05:57:03.477Z,22.75
2023-05-19T05:59:30.818Z,22.36
2023-05-19T06:01:58.286Z,24.75
2023-05-19T06:04:26.030Z,26.62
2023-05-19T06:06:57.106Z,27.70
2023-05-19T06:09:25.289Z,26.95
2023-05-19T06:11:52.854Z,26.94
2023-05-19T06:14:20.432Z,26.75
2023-05-19T06:16:48.452Z,27.37
2023-05-19T06:19:16.527Z,28.78
2023-05-19T06:21:44.628Z,30.29
2023-05-19T06:24:12.518Z,32.16
2023-05-19T06:26:40.168Z,32.73
2023-05-19T06:29:07.565Z,31.51
2023-05-19T06:31:34.837Z,30.46
2023-05-19T06:34:03.707Z,30.88
2023-05-19T06:36:31.489Z,30.30
2023-05-19T06:39:01.338Z,31.27
2023-05-19T06:41:31.315Z,31.27
2023-05-19T06:43:58.750Z,31.11
2023-05-19T06:46:26.045Z,32.13
2023-05-19T06:48:53.612Z,31.04
2023-05-19T06:51:22.485Z,30.72
2023-05-19T06:53:50.492Z,31.52
2023-05-19T06:56:19.084Z,31.58
2023-05-19T06:58:46.494Z,31.34
2023-05-19T07:01:13.732Z,30.53
2023-05-19T07:03:42.083Z,30.31
2023-05-19T07:06:09.501Z,30.82
2023-05-19T07:08:37.426Z,30.98
2023-05-19T07:11:05.373Z,31.81
2023-05-19T07:13:33.096Z,30.14
2023-05-19T07:16:00.400Z,27.47
2023-05-19T07:18:31.902Z,24.49
2023-05-19T07:21:14.921Z,25.94
2023-05-19T07:23:42.456Z,27.02
2023-05-19T07:26:09.651Z,27.57
2023-05-19T07:28:37.772Z,27.69
2023-05-19T07:31:06.923Z,27.77
2023-05-19T07:33:34.171Z,27.79
2023-05-19T07:36:01.454Z,27.64
2023-05-19T07:38:31.568Z,27.16
2023-05-19T07:40:58.932Z,27.81
2023-05-19T07:43:26.254Z,27.80
2023-05-19T07:45:56.396Z,28.41
2023-05-19T07:48:25.776Z,28.79
2023-05-19T07:50:53.337Z,28.95
2023-05-19T07:53:22.724Z,28.91
2023-05-19T07:55:50.314Z,28.87
2023-05-19T07:58:17.983Z,29.18
2023-05-19T08:00:46.334Z,30.12
2023-05-19T08:03:17.988Z,28.59
2023-05-19T08:05:46.088Z,28.74
2023-05-19T08:08:16.767Z,27.97
2023-05-19T08:10:44.277Z,27.36
2023-05-19T08:13:11.534Z,27.55
2023-05-19T08:15:39.461Z,27.73
2023-05-19T08:18:06.830Z,26.46
2023-05-19T08:20:34.618Z,27.97
2023-05-19T08:23:02.438Z,28.44
2023-05-19T08:25:29.618Z,27.97
2023-05-19T08:27:56.940Z,28.03
2023-05-19T08:30:24.536Z,27.68
2023-05-19T08:32:51.944Z,27.68
2023-05-19T08:35:21.870Z,27.16
2023-05-19T08:37:49.338Z,27.64
2023-05-19T08:40:18.435Z,27.68
2023-05-19T08:42:46.327Z,27.46
2023-05-19T08:45:13.967Z,27.97
2023-05-19T08:47:46.540Z,25.65
2023-05-19T08:50:18.204Z,25.94
2023-05-19T08:52:53.778Z,25.98
2023-05-19T08:55:37.317Z,25.37
2023-05-19T08:58:05.110Z,25.04
2023-05-19T09:00:33.385Z,24.67
2023-05-19T09:03:17.378Z,24.66
2023-05-19T09:09:16.168Z,27.26
2023-05-19T09:15:17.974Z,25.53
2023-05-19T09:17:48.227Z,24.99
2023-05-19T09:20:17.451Z,24.89
2023-05-19T09:22:48.300Z,24.68
2023-05-19T09:25:36.039Z,23.98
2023-05-19T09:28:07.720Z,23.24
2023-05-19T09:30:47.258Z,23.55
2023-05-19T09:33:19.972Z,24.18
2023-05-19T09:35:48.309Z,24.25
2023-05-19T09:38:19.646Z,23.87
2023-05-19T09:40:50.049Z,24.22
2023-05-19T09:43:17.976Z,23.95
2023-05-19T09:45:45.452Z,23.64
2023-05-19T09:48:14.795Z,24.25
2023-05-19T09:50:45.620Z,25.04
2023-05-19T09:53:14.414Z,25.15
2023-05-19T09:55:42.986Z,25.66
2023-05-19T09:58:12.582Z,25.01
2023-05-19T10:00:40.437Z,23.46
2023-05-19T10:03:09.305Z,23.47
2023-05-19T10:05:36.912Z,23.22
2023-05-19T10:08:10.613Z,23.73
2023-05-19T10:10:39.128Z,24.56
2023-05-19T10:13:07.172Z,24.28
2023-05-19T10:15:40.809Z,24.29
2023-05-19T10:18:14.246Z,24.21
2023-05-19T10:24:13.396Z,23.96
2023-05-19T10:26:48.249Z,23.42
2023-05-19T10:29:19.480Z,23.34
2023-05-19T10:31:48.206Z,23.22
2023-05-19T10:34:50.595Z,23.15
2023-05-19T10:37:29.619Z,22.35
2023-05-19T10:39:57.959Z,21.90
2023-05-19T10:43:02.333Z,21.49
2023-05-19T10:45:31.938Z,21.72
2023-05-19T10:47:59.873Z,21.96
2023-05-19T10:50:27.321Z,22.03
2023-05-19T10:52:56.313Z,22.00
2023-05-19T10:55:47.685Z,22.04
2023-05-19T10:58:14.941Z,21.50
2023-05-19T11:00:42.424Z,22.13
2023-05-19T11:03:36.283Z,22.52
2023-05-19T11:06:25.150Z,22.65
2023-05-19T11:08:54.870Z,23.18
2023-05-19T11:11:23.617Z,22.39
2023-05-19T11:13:52.974Z,22.28
2023-05-19T11:16:30.680Z,22.45
2023-05-19T11:19:02.090Z,22.97
2023-05-19T11:21:46.685Z,23.39
2023-05-19T11:24:40.148Z,23.63
2023-05-19T11:27:33.362Z,23.57
2023-05-19T11:30:20.214Z,23.38
2023-05-19T11:32:48.542Z,23.48
2023-05-19T11:35:19.270Z,23.27
2023-05-19T11:37:48.854Z,22.01
2023-05-19T11:40:19.671Z,22.20
2023-05-19T11:42:47.247Z,22.56
2023-05-19T11:45:14.472Z,22.35
2023-05-19T11:48:00.275Z,22.16
2023-05-19T11:50:29.130Z,22.56
2023-05-19T11:52:57.882Z,23.20
2023-05-19T11:55:25.473Z,23.33
2023-05-19T11:58:04.048Z,23.11
2023-05-19T12:00:40.402Z,23.04
2023-05-19T12:03:09.565Z,22.90
2023-05-19T12:05:42.794Z,23.13
2023-05-19T12:08:12.017Z,23.38
2023-05-19T12:10:40.479Z,23.30
2023-05-19T12:13:12.151Z,22.98
2023-05-19T12:15:41.351Z,22.79
2023-05-19T12:18:08.746Z,22.88
2023-05-19T12:20:36.601Z,23.02
2023-05-19T12:23:04.863Z,22.73
2023-05-19T12:25:32.870Z,22.76
2023-05-19T12:28:04.936Z,22.90
2023-05-19T12:30:35.997Z,22.49
2023-05-19T12:33:03.748Z,22.58
2023-05-19T12:35:36.297Z,22.86
2023-05-19T12:38:05.125Z,22.74
2023-05-19T12:40:37.737Z,22.66
2023-05-19T12:43:06.924Z,22.22
2023-05-19T12:45:38.352Z,22.29
2023-05-19T12:48:11.215Z,22.28
2023-05-19T12:50:38.694Z,22.56
2023-05-19T12:53:09.306Z,22.80
2023-05-19T12:55:44.104Z,22.53
2023-05-19T12:58:12.395Z,23.16
2023-05-19T13:00:49.902Z,23.15
2023-05-19T13:03:19.832Z,22.64
2023-05-19T13:05:54.023Z,22.93
2023-05-19T13:08:26.645Z,22.79
2023-05-19T13:10:54.427Z,23.19
2023-05-19T13:13:23.217Z,23.41
2023-05-19T13:15:50.467Z,23.70
2023-05-19T13:18:24.931Z,23.65
2023-05-19T13:20:57.638Z,23.42
2023-05-19T13:23:25.854Z,23.49
2023-05-19T13:25:53.464Z,23.46
2023-05-19T13:28:20.953Z,23.59
2023-05-19T13:30:49.707Z,23.86
2023-05-19T13:33:20.221Z,23.58
2023-05-19T13:35:50.223Z,22.99
2023-05-19T13:38:17.840Z,23.11
2023-05-19T13:40:45.763Z,23.04
2023-05-19T13:43:13.170Z,23.27
2023-05-19T13:45:42.903Z,23.53
2023-05-19T13:48:11.940Z,23.76
2023-05-19T13:50:39.269Z,24.09
2023-05-19T13:53:06.753Z,24.30
2023-05-19T13:55:34.048Z,24.36
2023-05-19T13:58:01.414Z,24.77
2023-05-19T14:00:29.056Z,24.82
2023-05-19T14:02:56.774Z,24.87
2023-05-19T14:05:24.116Z,24.81
2023-05-19T14:07:51.822Z,24.66
2023-05-19T14:10:19.394Z,24.29
2023-05-19T14:13:14.170Z,24.27
2023-05-19T14:15:37.934Z,24.10
2023-05-19T14:18:06.673Z,24.05
2023-05-19T14:20:39.193Z,24.03
2023-05-19T14:23:10.532Z,23.98
2023-05-19T14:25:39.407Z,23.67
2023-05-19T14:28:06.734Z,23.21
2023-05-19T14:30:36.308Z,22.98
2023-05-19T14:33:04.034Z,23.04
2023-05-19T14:35:31.304Z,22.96
2023-05-19T14:37:58.900Z,23.15
2023-05-19T14:40:26.658Z,23.56
2023-05-19T14:42:55.029Z,23.60
2023-05-19T14:45:22.230Z,23.91
2023-05-19T14:47:49.964Z,24.30
2023-05-19T14:50:17.258Z,24.55
2023-05-19T14:52:44.742Z,24.59
2023-05-19T14:55:12.266Z,24.96
2023-05-19T14:57:39.518Z,24.85
2023-05-19T15:00:09.327Z,24.95
2023-05-19T15:02:36.836Z,25.23
2023-05-19T15:05:04.644Z,25.50
2023-05-19T15:07:32.013Z,24.33
2023-05-19T15:09:59.856Z,23.97
2023-05-19T15:12:29.557Z,24.34
2023-05-19T15:14:56.922Z,24.38
2023-05-19T15:17:24.447Z,24.60
2023-05-19T15:19:51.850Z,24.58
2023-05-19T15:22:19.192Z,24.57
2023-05-19T15:24:46.860Z,24.19
2023-05-19T15:27:14.133Z,23.91
2023-05-19T15:29:41.356Z,23.75
2023-05-19T15:32:09.039Z,23.46
2023-05-19T15:34:36.540Z,23.62
2023-05-19T15:37:04.086Z,23.61
2023-05-19T15:39:32.392Z,23.46
2023-05-19T15:41:59.749Z,23.55
2023-05-19T15:44:28.939Z,23.36
2023-05-19T15:46:57.106Z,23.45
2023-05-19T15:49:27.570Z,23.33
2023-05-19T15:51:54.925Z,22.99
2023-05-19T15:54:22.564Z,23.26
2023-05-19T15:56:49.868Z,23.12
2023-05-19T15:59:17.308Z,22.98
2023-05-19T16:01:45.097Z,23.02
2023-05-19T16:04:12.775Z,23.18
2023-05-19T16:06:40.050Z,23.21
2023-05-19T16:09:07.270Z,23.27
2023-05-19T16:11:34.825Z,23.23
2023-05-19T16:14:02.006Z,23.31
2023-05-19T16:16:37.524Z,23.38
2023-05-19T16:19:05.202Z,23.36
2023-05-19T16:21:43.656Z,23.40
2023-05-19T16:24:11.276Z,23.40
2023-05-19T16:26:38.604Z,23.30
2023-05-19T16:29:06.047Z,23.36
2023-05-19T16:31:36.313Z,23.33
2023-05-19T16:34:03.891Z,23.32
2023-05-19T16:36:31.984Z,23.28
2023-05-19T16:39:01.818Z,23.24
2023-05-19T16:41:29.125Z,23.24
2023-05-19T16:43:56.388Z,23.34
2023-05-19T16:46:24.152Z,23.33
2023-05-19T16:48:51.846Z,23.29
2023-05-19T16:51:19.199Z,23.27
2023-05-19T16:53:47.829Z,23.06
2023-05-19T16:56:15.150Z,22.95
2023-05-19T16:58:42.406Z,22.85
2023-05-19T17:01:12.088Z,22.77
2023-05-19T17:03:39.485Z,22.37
2023-05-19T17:06:06.808Z,22.38
2023-05-19T17:08:34.475Z,22.31
2023-05-19T17:11:01.915Z,22.30
2023-05-19T17:13:33.867Z,22.26
2023-05-19T17:16:02.584Z,22.13
2023-05-19T17:18:31.395Z,22.12
2023-05-19T17:21:03.905Z,21.95
2023-05-19T17:23:32.598Z,21.84
2023-05-19T17:26:00.551Z,22.02
2023-05-19T17:28:30.974Z,21.91
2023-05-19T17:30:58.934Z,21.75
2023-05-19T17:33:26.432Z,21.58
2023-05-19T17:35:53.769Z,21.48
2023-05-19T17:38:23.912Z,21.41
2023-05-19T17:40:51.189Z,21.38
2023-05-19T17:43:18.465Z,21.29
2023-05-19T17:45:46.039Z,21.27
2023-05-19T17:48:13.476Z,21.10
2023-05-19T17:50:40.851Z,21.17
2023-05-19T17:53:08.927Z,21.15
2023-05-19T17:55:36.553Z,21.00
2023-05-19T17:58:04.177Z,20.81
2023-05-19T18:00:32.154Z,20.69
2023-05-19T18:03:01.939Z,20.58
2023-05-19T18:05:33.417Z,20.51
2023-05-19T18:08:05.140Z,20.29
2023-05-19T18:10:36.607Z,20.21
2023-05-19T18:13:05.430Z,20.24
2023-05-19T18:15:33.069Z,20.07
2023-05-19T18:18:02.521Z,20.06
2023-05-19T18:20:31.212Z,19.79
2023-05-19T18:22:58.665Z,19.67
2023-05-19T18:25:26.385Z,19.48
2023-05-19T18:27:55.927Z,19.32
2023-05-19T18:30:23.654Z,19.34
2023-05-19T18:32:51.005Z,19.24
2023-05-19T18:35:20.852Z,19.09
2023-05-19T18:37:48.171Z,19.00
2023-05-19T18:40:15.447Z,18.87
2023-05-19T18:42:43.263Z,18.78
2023-05-19T18:45:20.298Z,18.69
2023-05-19T18:47:48.251Z,18.50
2023-05-19T18:50:16.718Z,18.47
2023-05-19T18:52:44.067Z,18.29
2023-05-19T18:55:11.662Z,18.22
2023-05-19T18:57:38.981Z,18.14
2023-05-19T19:00:07.033Z,18.06
2023-05-19T19:02:34.671Z,17.96
2023-05-19T19:05:04.136Z,17.92
2023-05-19T19:07:31.901Z,17.88
2023-05-19T19:09:59.516Z,17.79
2023-05-19T19:12:26.821Z,17.73
2023-05-19T19:14:54.656Z,17.70
2023-05-19T19:17:22.257Z,17.63
2023-05-19T19:19:50.024Z,17.58
2023-05-19T19:22:17.521Z,17.57
2023-05-19T19:24:45.647Z,17.49
2023-05-19T19:27:13.401Z,17.50
2023-05-19T19:29:40.830Z,17.47
2023-05-19T19:32:08.621Z,17.47
2023-05-19T19:34:36.063Z,17.42
2023-05-19T19:37:04.055Z,17.43
2023-05-19T19:39:31.724Z,17.40
2023-05-19T19:41:59.002Z,17.42
2023-05-19T19:44:26.335Z,17.40
2023-05-19T19:46:54.067Z,17.36
2023-05-19T19:49:21.523Z,17.35
2023-05-19T19:51:49.107Z,17.40
2023-05-19T19:54:16.740Z,17.34
2023-05-19T19:56:57.062Z,17.35
2023-05-19T20:06:02.466Z,17.19
2023-05-19T20:08:29.959Z,17.23
2023-05-19T20:10:57.149Z,17.21
2023-05-19T20:13:24.497Z,17.25
2023-05-19T20:15:52.138Z,17.21
2023-05-19T20:18:19.320Z,17.28
2023-05-19T20:20:46.666Z,17.14
2023-05-19T20:23:16.301Z,17.14
2023-05-19T20:25:58.524Z,17.14
2023-05-19T20:28:30.586Z,17.17
2023-05-19T20:30:57.973Z,17.17
2023-05-19T20:33:25.252Z,17.14
2023-05-19T20:35:52.721Z,17.15
2023-05-19T20:38:19.972Z,17.14
2023-05-19T20:40:47.847Z,17.24
2023-05-19T20:52:42.297Z,17.32
2023-05-19T20:58:40.661Z,17.34
2023-05-19T21:01:08.249Z,17.40
2023-05-19T21:03:35.777Z,17.35
2023-05-19T21:06:03.316Z,17.28
2023-05-19T21:08:30.941Z,17.24
2023-05-19T21:10:58.240Z,17.12
2023-05-19T21:13:25.499Z,17.11
2023-05-19T21:15:53.020Z,17.09
2023-05-19T21:18:20.366Z,17.09
2023-05-19T21:20:47.766Z,17.08
2023-05-19T21:23:15.793Z,17.03
2023-05-19T21:25:45.172Z,16.97
2023-05-19T21:28:12.843Z,16.99
2023-05-19T21:30:40.414Z,17.00
2023-05-19T21:33:07.836Z,16.98
2023-05-19T21:35:35.143Z,16.95
2023-05-19T21:38:12.116Z,16.87
2023-05-19T21:40:49.817Z,16.77
2023-05-19T21:43:17.445Z,16.75
2023-05-19T21:45:45.148Z,16.64
2023-05-19T21:48:12.420Z,16.59
2023-05-19T21:50:40.094Z,16.53
2023-05-19T21:53:07.345Z,16.47
2023-05-19T21:55:34.987Z,16.44
2023-05-19T21:58:02.963Z,16.42
2023-05-19T22:00:30.418Z,16.32
2023-05-19T22:02:58.067Z,16.27
2023-05-19T22:05:25.783Z,16.21
2023-05-19T22:07:52.932Z,16.21
2023-05-19T22:10:20.430Z,16.32
2023-05-19T22:12:47.758Z,16.34
2023-05-19T22:15:15.944Z,16.46
2023-05-19T22:17:43.848Z,16.52
2023-05-19T22:20:11.932Z,16.63
2023-05-19T22:22:39.159Z,16.65
2023-05-19T22:25:07.201Z,16.69
2023-05-19T22:27:34.479Z,16.59
2023-05-19T22:30:01.778Z,16.51
2023-05-19T22:32:30.466Z,16.48
2023-05-19T22:34:57.682Z,16.48
2023-05-19T22:37:24.943Z,16.54
2023-05-19T22:39:52.465Z,16.54
2023-05-19T22:42:19.750Z,16.49
2023-05-19T22:44:46.977Z,16.38
2023-05-19T22:47:15.090Z,16.29
2023-05-19T22:56:35.888Z,16.25
2023-05-19T22:59:03.426Z,16.13
2023-05-19T23:01:30.731Z,16.08
2023-05-19T23:03:58.045Z,16.04
2023-05-19T23:06:25.790Z,16.01
2023-05-19T23:09:01.143Z,15.98
2023-05-19T23:11:28.658Z,15.97
2023-05-19T23:13:56.057Z,15.97
2023-05-19T23:16:23.337Z,15.94
2023-05-19T23:18:50.987Z,15.91
2023-05-19T23:21:18.284Z,15.81
2023-05-19T23:23:45.615Z,15.77
2023-05-19T23:26:16.221Z,15.70
2023-05-19T23:28:43.681Z,15.64
2023-05-19T23:31:10.993Z,15.65
2023-05-19T23:33:38.655Z,15.63
2023-05-19T23:36:10.214Z,15.66
2023-05-19T23:38:37.867Z,15.57
2023-05-19T23:41:05.664Z,15.47
2023-05-19T23:43:32.991Z,15.51
2023-05-19T23:46:00.615Z,15.40
2023-05-19T23:48:29.273Z,15.34
2023-05-19T23:50:57.649Z,15.33
2023-05-19T23:53:25.202Z,15.27
2023-05-19T23:55:52.729Z,15.22
2023-05-19T23:58:20.006Z,15.18
